• Join FlightAware (Why Join?)
  • Login
  • US Flag 
06:03PM EDT


 

Airport Tracker/Info


-or-


 

Live Flight TrackerFlight Track Log ✈ TRS1193 ✈ 17-May-2012 ✈ KATL - KIAD

Flight Track Log - Related Links

Times and Time Zones

All times are in EDT time to prevent confusion due to time zone crossing. See the TRS1193 flight status page for this flight to view local times or setup timezone preferences in your user account.

Time Position Orientation Groundspeed Altitude Reporting Facility
EDT Latitude Longitude Course Direction KTS MPH feet Rate Location/Type
09:43PM 33.6497 -84.3633 72° East 451 519 2,500  Level Atlanta Center
09:44PM 33.6667 -84.3000 76° East 251 289 3,600 1,920 Climbing Atlanta TRACON
09:45PM 33.6833 -84.2167 76° East 266 306 6,000 2,340 Climbing Atlanta TRACON
09:46PM 33.7000 -84.1333 64° Northeast 273 314 8,100 2,280 Climbing Atlanta TRACON
09:47PM 33.7333 -84.0500 59° Northeast 295 339 10,400 1,920 Climbing Atlanta TRACON
09:48PM 33.7833 -83.9500 46° Northeast 329 379 12,200 1,800 Climbing Atlanta TRACON
09:49PM 33.8500 -83.8667 59° Northeast 365 420 14,200 2,100 Climbing Atlanta TRACON
09:50PM 33.9000 -83.7667 49° Northeast 375 432 16,500 2,160 Climbing Atlanta TRACON
09:51PM 33.9833 -83.6500 58° Northeast 386 444 18,800 1,860 Climbing Atlanta TRACON
09:52PM 34.0394 -83.5400 52° Northeast 387 445 20,700 1,560 Climbing Atlanta Center
09:53PM 34.1100 -83.4317 53° Northeast 398 458 22,100 1,500 Climbing Atlanta Center
09:54PM 34.1867 -83.3081 53° Northeast 412 474 23,700 1,500 Climbing Atlanta Center
09:55PM 34.2589 -83.1919 52° Northeast 422 486 25,100 1,320 Climbing Atlanta Center
09:56PM 34.3331 -83.0753 54° Northeast 427 491 26,400 1,080 Climbing Atlanta Center
09:57PM 34.4053 -82.9536 51° Northeast 436 502 27,300 960 Climbing Atlanta Center
09:58PM 34.4853 -82.8317 55° Northeast 442 509 28,400 1,200 Climbing Atlanta Center
09:59PM 34.5592 -82.7019 52° Northeast 455 524 29,700 1,200 Climbing Atlanta Center
10:00PM 34.6186 -82.6078 53° Northeast 455 524 30,800 1,020 Climbing Atlanta Center
10:01PM 34.7025 -82.4722 52° Northeast 455 524 31,800 960 Climbing Atlanta Center
10:02PM 34.7803 -82.3494 55° Northeast 455 524 32,800 600 Climbing Atlanta Center
10:03PM 34.8536 -82.2239 52° Northeast 455 524 33,000 60 Climbing Atlanta Center
10:04PM 34.9350 -82.0956 54° Northeast 455 524 33,000  Level Atlanta Center
10:05PM 35.0103 -81.9694 56° Northeast 447 514 33,000  Level Atlanta Center
10:06PM 35.0789 -81.8433 57° Northeast 447 514 33,000  Level Atlanta Center
10:07PM 35.1475 -81.7144 58° Northeast 447 514 33,000  Level Atlanta Center
10:08PM 35.2139 -81.5856 57° Northeast 447 514 33,000  Level Atlanta Center
10:09PM 35.2800 -81.4589 57° Northeast 447 514 33,000  Level Atlanta Center
10:10PM 35.3483 -81.3294 58° Northeast 447 514 33,000  Level Atlanta Center
10:11PM 35.4161 -81.1972 58° Northeast 447 514 33,000  Level Atlanta Center
10:12PM 35.4842 -81.0650 57° Northeast 458 527 33,000  Level Atlanta Center
10:13PM 35.5539 -80.9347 57° Northeast 463 533 33,000  Level Atlanta Center
10:14PM 35.6233 -80.8017 57° Northeast 463 533 33,000  Level Atlanta Center
10:15PM 35.6928 -80.6686 58° Northeast 463 533 33,000  Level Atlanta Center
10:16PM 35.7619 -80.5328 57° Northeast 463 533 33,000  Level Atlanta Center
10:17PM 35.8311 -80.3992 58° Northeast 463 533 33,000  Level Atlanta Center
10:20PM 35.9792 -80.1044 57° Northeast 468 539 33,000  Level Washington Center
10:21PM 36.0600 -79.9497 53° Northeast 455 524 33,000  Level Washington Center
10:22PM 36.1400 -79.8178 50° Northeast 465 535 33,000  Level Washington Center
10:23PM 36.2192 -79.7011 48° Northeast 479 551 33,000  Level Washington Center
10:24PM 36.3175 -79.5669 49° Northeast 479 551 33,000  Level Washington Center
10:25PM 36.3964 -79.4550 49° Northeast 474 545 33,000  Level Washington Center
10:26PM 36.4836 -79.3300 49° Northeast 474 545 33,000  Level Washington Center
10:27PM 36.5797 -79.1925 49° Northeast 474 545 33,000 -120 Level Washington Center
10:28PM 36.6647 -79.0719 47° Northeast 468 539 32,800 -1,440 Descending Washington Center
10:29PM 36.7536 -78.9517 50° Northeast 468 539 30,200 -2,520 Descending Washington Center
10:30PM 36.8278 -78.8406 48° Northeast 468 539 27,800 -2,340 Descending Washington Center
10:31PM 36.9122 -78.7247 50° Northeast 462 532 25,600 -1,440 Descending Washington Center
10:32PM 36.9881 -78.6108 48° Northeast 444 511 25,000 -360 Descending Washington Center
10:33PM 37.0789 -78.4842 46° Northeast 438 504 25,000 -240 Level Washington Center
10:34PM 37.1628 -78.3753 36° Northeast 438 504 24,600 -660 Descending Washington Center
10:35PM 37.2564 -78.2900 35° Northeast 420 483 23,700 -960 Descending Washington Center
10:36PM 37.3500 -78.2069 36° Northeast 415 478 22,700 -1,020 Descending Washington Center
10:37PM 37.4308 -78.1339 36° Northeast 404 465 21,700 -1,020 Descending Washington Center
10:38PM 37.5203 -78.0506 35° Northeast 399 459 20,700 -1,020 Descending Washington Center
10:39PM 37.6094 -77.9722 36° Northeast 393 452 19,700 -1,020 Descending Washington Center
10:40PM 37.6944 -77.8933 36° Northeast 388 447 18,700 -960 Descending Washington Center
10:41PM 37.7814 -77.8147 36° Northeast 388 447 17,900 -960 Descending Washington Center
10:42PM 37.8664 -77.7356 36° Northeast 383 441 16,900 -1,500 Descending Washington Center
10:43PM 37.9511 -77.6589 36° Northeast 378 435 14,900 -1,920 Descending Washington Center
10:44PM 38.0400 -77.5769 36° Northeast 366 421 13,100 -1,920 Descending Washington Center
10:45PM 38.1036 -77.5181 36° Northeast 351 404 11,100 -1,380 Descending Washington Center
10:46PM 38.1714 -77.4564 14° North 319 367 10,400 -600 Descending Washington Center
10:47PM 38.2489 -77.4319 340° North 304 350 10,000 -720 Descending Washington Center
10:48PM 38.3233 -77.4656 356° North 267 307 9,000 -1,440 Descending Washington Center
10:49PM 38.4003 -77.4728 North 267 307 7,200 -1,500 Descending Washington Center
10:50PM 38.4733 -77.4719 North 272 313 6,100 -1,020 Descending Washington Center
10:51PM 38.5506 -77.4686 North 272 313 5,300 -900 Descending Washington Center
10:52PM 38.6236 -77.4678 360° North 272 313 4,400 -660 Descending Washington Center
10:53PM 38.7050 -77.4672 360° North 272 313 4,000 -360 Descending Washington Center
10:53PM 38.7667 -77.4667 360° North 257 296 3,800 -840 Descending Potomac TRACON
10:55PM 38.8167 -77.4667 360° North 225 259 2,500 -1,140 Descending Potomac TRACON
10:56PM 38.8667 -77.4667 360° North 182 209 1,600 -900 Descending Potomac TRACON
10:57PM 38.9167 -77.4667 360° North 145 167 800 -840 Descending Potomac TRACON